Airfield :
LOGIN :

Register | Disclaimer

   EN    FR    IT 

 










Legend :    VFR   Marginal VFR   IFR   Intensive IFR   Very Intensive IFR
Visi :
Ceiling :
>= 8 km
>= 3000ft
5 to 8 km
1000 to 3000 ft
1500m to 5 km
500 to 1000 ft
800 to 1500m
200 to 500 ft
< 800m
< 200 ft
Symbols :   Thunderstorms  Fog  Heavy snow  Heavy precipitations  Wind > 20 kt
SIGMETs :     Misc.  Thunderstorms  Icing  Turbulence  Mountain Waves  Volcanic Ashes






- Airport Elevation : 995 ft
- IATA code : KTW


EPKT - Katowice

CURRENT METAR :
  • 291800Z 23013KT 9999 -SHRASN SCT023CB BKN029 02/M01 Q1005

EXPIRED METARs :
  • 291730Z 22012KT 9999 -SHRASN FEW011 SCT021CB 02/M01 Q1005
  • 291700Z 23011KT 9999 -SHRA SCT030CB OVC034 02/M01 Q1004
  • 291630Z 23010KT 9999 -SHRASN SCT034CB SCT040 02/M01 Q1004
  • 291600Z 24013KT 9999 -SHRA BKN029CB OVC032 02/M01 Q1004
  • 291530Z 24015KT 7000 -SHSNRA FEW002 SCT022 BKN029CB 03/M02 Q1003

TAF TAF EPKT
Valid from the 29 at 18:00 until the 30 at 18:00 UTC


291730Z 2918/3018 25012KT 9999 BKN040
TEMPO 2918/2924 BKN025CB
TEMPO 3000/3007 29015G25KT 1500 SHSN SHSNRA BKN004 BKN010CB
BECMG 3012/3015 25015G25KT 4000 SNRA RA BR BKN013
TEMPO 3015/3018 2000 SNRA BKN008



MET'MAP, your aeronautical weather chart ! - Copyright ORBIFLY December 2007 - Disclaimer

ORBIFLY MET'MAP TEAM :

Programming & Development : Alexandra Zaïnal
Concept & original design : Baudouin d'Aumeries
Assistance for programming : Marc-Olivier Méhu
Technical & hardware support : Manuel Goepfert

Contact : metmap@orbifly.com




SOURCES & CREDITS :

   NOAA